createdAt,value
2022-12-11T00:00:24.982Z,8.50
2022-12-11T00:02:51.799Z,8.50
2022-12-11T00:05:18.681Z,8.40
2022-12-11T00:07:45.370Z,8.80
2022-12-11T00:10:12.050Z,9.90
2022-12-11T00:12:38.586Z,6.60
2022-12-11T00:15:05.935Z,7.90
2022-12-11T00:17:32.491Z,8.20
2022-12-11T00:19:59.086Z,9.40
2022-12-11T00:22:25.649Z,11.00
2022-12-11T00:24:52.261Z,11.10
2022-12-11T00:27:18.847Z,8.30
2022-12-11T00:29:45.580Z,10.30
2022-12-11T00:32:12.223Z,10.40
2022-12-11T00:34:39.132Z,9.90
2022-12-11T00:37:06.950Z,9.00
2022-12-11T00:39:33.719Z,6.50
2022-12-11T00:42:00.357Z,6.90
2022-12-11T00:44:26.935Z,9.50
2022-12-11T00:46:53.651Z,7.50
2022-12-11T00:49:20.286Z,9.70
2022-12-11T00:51:46.912Z,9.80
2022-12-11T00:54:13.513Z,7.80
2022-12-11T00:56:40.087Z,9.30
2022-12-11T00:59:06.758Z,8.70
2022-12-11T01:01:33.489Z,9.30
2022-12-11T01:04:00.469Z,8.60
2022-12-11T01:06:28.527Z,5.70
2022-12-11T01:09:16.096Z,9.00
2022-12-11T01:11:43.446Z,10.10
2022-12-11T01:14:11.750Z,8.90
2022-12-11T01:16:38.730Z,8.70
2022-12-11T01:19:05.686Z,7.60
2022-12-11T01:21:32.455Z,6.40
2022-12-11T01:23:59.169Z,7.60
2022-12-11T01:26:26.000Z,9.20
2022-12-11T01:28:52.834Z,8.80
2022-12-11T01:31:22.301Z,6.50
2022-12-11T01:33:49.321Z,9.20
2022-12-11T01:36:19.953Z,8.50
2022-12-11T01:38:48.652Z,8.70
2022-12-11T01:41:18.093Z,8.90
2022-12-11T01:44:28.919Z,9.40
2022-12-11T01:46:55.913Z,8.10
2022-12-11T01:49:26.399Z,8.30
2022-12-11T01:52:22.087Z,8.40
2022-12-11T01:54:51.447Z,8.40
2022-12-11T01:57:18.050Z,6.20
2022-12-11T01:59:47.263Z,8.60
2022-12-11T02:02:30.055Z,9.20
2022-12-11T02:04:57.005Z,7.20
2022-12-11T02:07:24.123Z,5.30
2022-12-11T02:09:50.980Z,8.60
2022-12-11T02:12:34.550Z,5.90
2022-12-11T02:15:11.409Z,5.10
2022-12-11T02:17:45.338Z,8.20
2022-12-11T02:20:30.647Z,7.50
2022-12-11T02:23:12.735Z,8.20
2022-12-11T02:26:25.635Z,7.80
2022-12-11T02:29:07.543Z,6.30
2022-12-11T02:32:16.602Z,6.00
2022-12-11T02:34:55.467Z,7.80
2022-12-11T02:37:25.137Z,7.50
2022-12-11T02:39:55.105Z,5.50
2022-12-11T02:42:23.527Z,7.80
2022-12-11T02:44:51.766Z,8.00
2022-12-11T02:47:21.187Z,7.60
2022-12-11T02:49:50.471Z,5.90
2022-12-11T02:52:22.160Z,7.20
2022-12-11T02:54:51.620Z,4.80
2022-12-11T02:57:28.993Z,7.50
2022-12-11T02:59:55.709Z,5.70
2022-12-11T03:02:22.684Z,7.40
2022-12-11T03:04:49.447Z,5.10
2022-12-11T03:07:26.331Z,4.70
2022-12-11T03:09:54.217Z,8.30
2022-12-11T03:12:34.561Z,5.40
2022-12-11T03:15:06.290Z,5.70
2022-12-11T03:17:50.709Z,4.50
2022-12-11T03:20:33.590Z,8.00
2022-12-11T03:23:41.145Z,8.10
2022-12-11T03:26:15.299Z,6.40
2022-12-11T03:28:59.177Z,6.10
2022-12-11T03:31:39.759Z,5.30
2022-12-11T03:34:25.979Z,7.60
2022-12-11T03:36:56.589Z,5.30
2022-12-11T03:39:33.293Z,7.20
2022-12-11T03:42:03.635Z,7.20
2022-12-11T03:44:33.830Z,3.90
2022-12-11T03:47:04.682Z,6.80
2022-12-11T03:49:37.276Z,6.20
2022-12-11T03:52:06.577Z,6.30
2022-12-11T03:54:35.395Z,6.60
2022-12-11T03:57:05.054Z,4.20
2022-12-11T03:59:31.677Z,6.90
2022-12-11T04:01:58.598Z,5.80
2022-12-11T04:04:25.791Z,6.80
2022-12-11T04:06:52.559Z,6.50
2022-12-11T04:09:19.376Z,6.10
2022-12-11T04:11:46.125Z,6.10
2022-12-11T04:14:33.726Z,6.30
2022-12-11T04:17:00.955Z,5.00
2022-12-11T04:19:46.441Z,4.90
2022-12-11T04:22:15.547Z,6.60
2022-12-11T04:24:42.597Z,4.80
2022-12-11T04:27:09.396Z,5.10
2022-12-11T04:29:35.971Z,5.40
2022-12-11T04:32:02.448Z,5.20
2022-12-11T04:34:29.407Z,6.50
2022-12-11T04:36:55.939Z,5.70
2022-12-11T04:39:22.492Z,6.50
2022-12-11T04:41:49.206Z,6.40
2022-12-11T04:44:15.859Z,6.90
2022-12-11T04:46:42.655Z,5.30
2022-12-11T04:49:10.121Z,3.80
2022-12-11T04:51:36.779Z,5.50
2022-12-11T04:54:03.458Z,6.40
2022-12-11T04:56:30.034Z,6.20
2022-12-11T04:58:56.961Z,6.10
2022-12-11T05:01:23.914Z,4.20
2022-12-11T05:03:51.086Z,5.20
2022-12-11T05:06:17.903Z,3.70
2022-12-11T05:08:45.567Z,4.60
2022-12-11T05:11:15.821Z,4.10
2022-12-11T05:13:44.199Z,4.80
2022-12-11T05:16:15.770Z,4.50
2022-12-11T05:18:43.005Z,4.90
2022-12-11T05:21:12.919Z,4.60
2022-12-11T05:23:39.850Z,4.50
2022-12-11T05:26:13.475Z,5.20
2022-12-11T05:28:42.040Z,4.60
2022-12-11T05:31:17.625Z,5.10
2022-12-11T05:33:45.651Z,5.40
2022-12-11T05:36:18.258Z,5.40
2022-12-11T05:38:45.491Z,5.50
2022-12-11T05:41:16.194Z,4.80
2022-12-11T05:43:42.927Z,3.00
2022-12-11T05:46:15.054Z,4.10
2022-12-11T05:48:43.960Z,4.80
2022-12-11T05:51:11.724Z,4.60
2022-12-11T05:53:40.588Z,4.40
2022-12-11T05:56:12.661Z,4.40
2022-12-11T05:58:40.392Z,4.40
2022-12-11T06:01:11.177Z,5.20
2022-12-11T06:03:38.072Z,5.70
2022-12-11T06:06:07.212Z,4.50
2022-12-11T06:08:35.044Z,5.50
2022-12-11T06:11:02.141Z,5.60
2022-12-11T06:13:28.922Z,5.60
2022-12-11T06:15:55.727Z,4.20
2022-12-11T06:18:22.375Z,5.40
2022-12-11T06:20:48.995Z,4.80
2022-12-11T06:23:15.511Z,6.40
2022-12-11T06:25:42.174Z,6.10
2022-12-11T06:28:08.824Z,6.50
2022-12-11T06:30:38.758Z,6.00
2022-12-11T06:33:06.880Z,6.50
2022-12-11T06:35:38.719Z,6.40
2022-12-11T06:38:08.667Z,6.70
2022-12-11T06:40:35.216Z,6.60
2022-12-11T06:43:01.754Z,7.10
2022-12-11T06:45:28.448Z,5.00
2022-12-11T06:47:55.862Z,6.20
2022-12-11T06:50:22.458Z,6.10
2022-12-11T06:52:49.015Z,6.60
2022-12-11T06:55:15.667Z,7.80
2022-12-11T06:57:42.344Z,6.80
2022-12-11T07:00:10.059Z,6.90
2022-12-11T07:02:36.682Z,7.50
2022-12-11T07:05:03.766Z,7.80
2022-12-11T07:07:30.469Z,8.20
2022-12-11T07:09:57.094Z,6.40
2022-12-11T07:12:23.917Z,7.10
2022-12-11T07:14:50.439Z,7.90
2022-12-11T07:17:17.026Z,7.60
2022-12-11T07:19:43.786Z,7.20
2022-12-11T07:22:10.333Z,7.50
2022-12-11T07:24:36.947Z,6.50
2022-12-11T07:27:04.729Z,7.20
2022-12-11T07:29:31.421Z,8.10
2022-12-11T07:31:58.187Z,7.20
2022-12-11T07:34:24.963Z,7.40
2022-12-11T07:36:51.663Z,8.10
2022-12-11T07:39:18.368Z,7.90
2022-12-11T07:41:46.003Z,7.20
2022-12-11T07:44:12.719Z,8.50
2022-12-11T07:46:39.526Z,7.50
2022-12-11T07:49:07.063Z,7.50
2022-12-11T07:51:37.622Z,8.10
2022-12-11T07:54:08.629Z,7.20
2022-12-11T07:56:35.263Z,6.90
2022-12-11T07:59:05.913Z,8.00
2022-12-11T08:01:36.468Z,7.80
2022-12-11T08:04:06.887Z,6.90
2022-12-11T08:06:37.875Z,7.30
2022-12-11T08:09:17.470Z,6.70
2022-12-11T08:11:51.155Z,7.70
2022-12-11T08:14:18.556Z,7.30
2022-12-11T08:16:45.168Z,7.20
2022-12-11T08:19:13.281Z,7.30
2022-12-11T08:21:40.532Z,8.60
2022-12-11T08:24:09.037Z,7.90
2022-12-11T08:26:36.553Z,7.50
2022-12-11T08:29:03.441Z,7.20
2022-12-11T08:31:30.396Z,7.80
2022-12-11T08:33:57.400Z,7.90
2022-12-11T08:36:25.102Z,5.30
2022-12-11T08:38:52.511Z,7.10
2022-12-11T08:41:26.836Z,7.60
2022-12-11T08:43:57.662Z,7.60
2022-12-11T08:46:32.419Z,8.20
2022-12-11T08:49:00.232Z,8.70
2022-12-11T08:51:29.575Z,8.30
2022-12-11T08:53:59.888Z,7.90
2022-12-11T08:56:28.194Z,6.60
2022-12-11T08:58:54.780Z,6.90
2022-12-11T09:01:25.421Z,7.00
2022-12-11T09:03:54.957Z,6.00
2022-12-11T09:06:24.558Z,5.40
2022-12-11T09:08:53.539Z,5.00
2022-12-11T09:11:29.051Z,6.50
2022-12-11T09:13:55.981Z,7.00
2022-12-11T09:16:26.754Z,6.40
2022-12-11T09:18:57.333Z,7.00
2022-12-11T09:21:28.600Z,5.90
2022-12-11T09:24:01.171Z,7.30
2022-12-11T09:26:30.237Z,6.20
2022-12-11T09:28:57.922Z,4.50
2022-12-11T09:31:30.205Z,6.40
2022-12-11T09:34:04.143Z,4.30
2022-12-11T09:36:31.194Z,4.80
2022-12-11T09:39:03.845Z,4.40
2022-12-11T09:41:49.964Z,5.60
2022-12-11T09:44:26.933Z,5.70
2022-12-11T09:46:53.872Z,6.10
2022-12-11T09:49:36.364Z,5.80
2022-12-11T09:52:29.595Z,4.10
2022-12-11T09:55:02.494Z,5.00
2022-12-11T09:57:57.244Z,6.40
2022-12-11T10:01:14.260Z,5.50
2022-12-11T10:04:19.759Z,5.80
2022-12-11T10:07:07.336Z,2.80
2022-12-11T10:10:12.808Z,4.90
2022-12-11T10:13:25.309Z,6.40
2022-12-11T10:16:04.732Z,5.80
2022-12-11T10:18:33.955Z,6.30
2022-12-11T10:21:02.619Z,5.40
2022-12-11T10:23:44.907Z,4.80
2022-12-11T10:26:20.688Z,4.20
2022-12-11T10:28:47.661Z,5.90
2022-12-11T10:31:21.521Z,6.10
2022-12-11T10:34:04.678Z,4.40
2022-12-11T10:36:39.129Z,3.10
2022-12-11T10:39:19.930Z,5.40
2022-12-11T10:41:49.970Z,6.20
2022-12-11T10:44:27.899Z,4.80
2022-12-11T10:47:13.963Z,5.30
2022-12-11T10:50:02.339Z,4.40
2022-12-11T10:52:42.716Z,6.30
2022-12-11T10:55:29.503Z,6.00
2022-12-11T10:58:03.873Z,5.40
2022-12-11T11:00:40.605Z,5.70
2022-12-11T11:03:27.244Z,6.30
2022-12-11T11:06:15.229Z,5.30
2022-12-11T11:08:47.336Z,5.30
2022-12-11T11:11:34.276Z,4.70
2022-12-11T11:14:15.089Z,5.30
2022-12-11T11:16:45.185Z,3.80
2022-12-11T11:19:33.541Z,4.30
2022-12-11T11:22:16.128Z,3.50
2022-12-11T11:24:52.291Z,4.40
2022-12-11T11:28:02.528Z,4.60
2022-12-11T11:30:39.971Z,5.30
2022-12-11T11:33:20.362Z,5.70
2022-12-11T11:35:58.319Z,5.90
2022-12-11T11:38:31.398Z,5.10
2022-12-11T11:41:19.790Z,3.90
2022-12-11T11:43:54.979Z,5.20
2022-12-11T11:46:30.873Z,5.70
2022-12-11T11:49:15.728Z,3.80
2022-12-11T11:51:55.993Z,4.50
2022-12-11T11:54:41.076Z,3.40
2022-12-11T11:57:42.479Z,3.80
2022-12-11T12:00:33.624Z,2.70
2022-12-11T12:03:10.276Z,3.10
2022-12-11T12:05:48.342Z,6.10
2022-12-11T12:08:52.849Z,7.60
2022-12-11T12:11:49.535Z,5.00
2022-12-11T12:14:51.775Z,4.30
2022-12-11T12:17:39.660Z,5.20
2022-12-11T12:20:10.487Z,5.00
2022-12-11T12:22:52.093Z,4.70
2022-12-11T12:25:32.164Z,4.70
2022-12-11T12:28:23.826Z,4.00
2022-12-11T12:31:24.680Z,4.00
2022-12-11T12:34:42.297Z,2.00
2022-12-11T12:37:15.046Z,3.80
2022-12-11T12:40:08.957Z,3.40
2022-12-11T12:42:51.138Z,3.90
2022-12-11T12:45:33.896Z,4.50
2022-12-11T12:48:02.106Z,4.20
2022-12-11T12:50:44.949Z,3.40
2022-12-11T12:53:20.913Z,3.40
2022-12-11T12:55:48.624Z,3.00
2022-12-11T12:58:34.783Z,4.10
2022-12-11T13:01:17.344Z,4.00
2022-12-11T13:03:55.438Z,3.50
2022-12-11T13:06:41.552Z,4.30
2022-12-11T13:09:28.332Z,4.30
2022-12-11T13:11:59.843Z,4.50
2022-12-11T13:14:32.425Z,4.50
2022-12-11T13:17:27.259Z,3.50
2022-12-11T13:20:20.441Z,4.70
2022-12-11T13:23:07.037Z,4.70
2022-12-11T13:25:58.413Z,5.10
2022-12-11T13:28:28.175Z,4.50
2022-12-11T13:31:16.017Z,4.10
2022-12-11T13:33:55.930Z,4.80
2022-12-11T13:36:34.623Z,3.60
2022-12-11T13:39:08.226Z,3.70
2022-12-11T13:41:38.133Z,3.80
2022-12-11T13:44:07.162Z,3.80
2022-12-11T13:46:37.353Z,3.40
2022-12-11T13:49:07.453Z,3.80
2022-12-11T13:51:37.010Z,2.70
2022-12-11T13:54:06.587Z,3.70
2022-12-11T13:56:33.827Z,3.10
2022-12-11T13:59:00.472Z,3.70
2022-12-11T14:01:33.857Z,3.40
2022-12-11T14:04:11.036Z,3.60
2022-12-11T14:06:39.755Z,3.30
2022-12-11T14:09:08.211Z,3.10
2022-12-11T14:11:38.459Z,2.80
2022-12-11T14:14:14.890Z,3.70
2022-12-11T14:16:42.426Z,3.10
2022-12-11T14:19:11.068Z,2.90
2022-12-11T14:21:37.826Z,3.70
2022-12-11T14:24:09.103Z,4.30
2022-12-11T14:26:39.448Z,3.40
2022-12-11T14:29:07.110Z,3.50
2022-12-11T14:31:40.789Z,3.60
2022-12-11T14:34:18.578Z,3.80
2022-12-11T14:36:48.103Z,3.70
2022-12-11T14:39:21.119Z,2.10
2022-12-11T14:42:02.963Z,3.90
2022-12-11T14:44:44.800Z,4.20
2022-12-11T14:47:23.330Z,3.40
2022-12-11T14:50:18.178Z,3.40
2022-12-11T14:53:02.810Z,2.30
2022-12-11T14:55:32.889Z,4.30
2022-12-11T14:58:05.030Z,4.20
2022-12-11T15:00:36.034Z,3.80
2022-12-11T15:03:17.723Z,4.00
2022-12-11T15:05:54.723Z,3.60
2022-12-11T15:08:34.189Z,3.90
2022-12-11T15:11:11.557Z,3.90
2022-12-11T15:13:56.878Z,2.20
2022-12-11T15:16:27.199Z,4.40
2022-12-11T15:18:55.668Z,2.50
2022-12-11T15:21:32.723Z,3.90
2022-12-11T15:24:03.161Z,3.80
2022-12-11T15:26:36.753Z,4.00
2022-12-11T15:29:25.216Z,3.80
2022-12-11T15:32:10.038Z,4.10
2022-12-11T15:34:58.976Z,4.50
2022-12-11T15:37:29.827Z,4.40
2022-12-11T15:39:59.621Z,4.60
2022-12-11T15:42:29.696Z,4.10
2022-12-11T15:44:56.755Z,5.20
2022-12-11T15:47:27.990Z,5.30
2022-12-11T15:50:02.211Z,5.10
2022-12-11T15:52:29.113Z,4.90
2022-12-11T15:54:55.695Z,5.00
2022-12-11T15:57:24.677Z,5.40
2022-12-11T15:59:53.889Z,5.00
2022-12-11T16:02:20.956Z,5.40
2022-12-11T16:04:47.802Z,5.20
2022-12-11T16:07:22.498Z,5.20
2022-12-11T16:09:49.954Z,5.40
2022-12-11T16:12:16.988Z,5.00
2022-12-11T16:14:45.499Z,5.50
2022-12-11T16:17:15.260Z,6.10
2022-12-11T16:19:44.005Z,4.60
2022-12-11T16:22:15.426Z,4.70
2022-12-11T16:24:42.730Z,5.30
2022-12-11T16:27:10.070Z,5.20
2022-12-11T16:29:39.259Z,5.90
2022-12-11T16:32:11.067Z,6.10
2022-12-11T16:34:39.113Z,5.30
2022-12-11T16:37:08.190Z,4.90
2022-12-11T16:39:37.393Z,4.80
2022-12-11T16:42:07.139Z,5.80
2022-12-11T16:44:33.826Z,6.30
2022-12-11T16:47:00.465Z,6.30
2022-12-11T16:49:27.034Z,5.40
2022-12-11T16:51:53.594Z,6.70
2022-12-11T16:54:20.234Z,6.70
2022-12-11T16:56:46.820Z,5.80
2022-12-11T16:59:13.428Z,6.20
2022-12-11T17:01:40.767Z,5.50
2022-12-11T17:04:07.772Z,6.70
2022-12-11T17:06:34.424Z,7.30
2022-12-11T17:09:01.205Z,7.20
2022-12-11T17:11:27.806Z,7.50
2022-12-11T17:13:57.088Z,6.80
2022-12-11T17:16:26.274Z,7.20
2022-12-11T17:18:53.527Z,7.00
2022-12-11T17:21:22.244Z,7.30
2022-12-11T17:23:50.952Z,6.50
2022-12-11T17:26:18.410Z,7.00
2022-12-11T17:28:45.405Z,6.10
2022-12-11T17:31:17.269Z,7.50
2022-12-11T17:33:46.458Z,7.30
2022-12-11T17:36:19.534Z,7.30
2022-12-11T17:38:46.379Z,6.70
2022-12-11T17:41:20.512Z,6.80
2022-12-11T17:43:53.546Z,6.40
2022-12-11T17:46:21.977Z,6.30
2022-12-11T17:48:48.911Z,6.40
2022-12-11T17:51:21.801Z,6.00
2022-12-11T17:53:48.466Z,6.00
2022-12-11T17:56:15.428Z,6.30
2022-12-11T17:58:42.250Z,6.90
2022-12-11T18:01:12.375Z,7.40
2022-12-11T18:03:40.843Z,7.00
2022-12-11T18:06:13.126Z,6.30
2022-12-11T18:08:40.144Z,7.20
2022-12-11T18:11:15.125Z,7.60
2022-12-11T18:13:43.639Z,6.40
2022-12-11T18:16:27.809Z,6.70
2022-12-11T18:18:54.777Z,6.60
2022-12-11T18:21:25.949Z,6.50
2022-12-11T18:23:53.838Z,6.10
2022-12-11T18:26:21.175Z,4.70
2022-12-11T18:28:49.244Z,5.30
2022-12-11T18:31:16.499Z,5.40
2022-12-11T18:33:44.306Z,6.00
2022-12-11T18:36:13.567Z,5.20
2022-12-11T18:38:42.028Z,5.80
2022-12-11T18:41:12.224Z,5.30
2022-12-11T18:43:41.352Z,5.60
2022-12-11T18:46:10.994Z,3.70
2022-12-11T18:48:38.282Z,3.40
2022-12-11T18:51:12.479Z,5.90
2022-12-11T18:53:40.211Z,6.20
2022-12-11T18:56:11.000Z,6.40
2022-12-11T18:58:39.625Z,5.80
2022-12-11T19:01:20.133Z,5.00
2022-12-11T19:03:47.366Z,6.20
2022-12-11T19:06:18.562Z,6.10
2022-12-11T19:08:45.973Z,5.60
2022-12-11T19:11:20.313Z,5.90
2022-12-11T19:13:47.803Z,6.80
2022-12-11T19:16:21.204Z,6.20
2022-12-11T19:18:49.464Z,5.40
2022-12-11T19:21:27.196Z,6.40
2022-12-11T19:23:54.704Z,4.20
2022-12-11T19:26:24.143Z,4.20
2022-12-11T19:28:52.888Z,5.10
2022-12-11T19:31:23.283Z,5.70
2022-12-11T19:33:50.369Z,4.30
2022-12-11T19:36:21.445Z,4.70
2022-12-11T19:38:48.663Z,5.00
2022-12-11T19:41:19.950Z,6.00
2022-12-11T19:43:47.163Z,4.20
2022-12-11T19:46:15.316Z,5.30
2022-12-11T19:48:43.050Z,6.40
2022-12-11T19:51:16.409Z,5.90
2022-12-11T19:53:44.677Z,3.60
2022-12-11T19:56:13.109Z,5.00
2022-12-11T19:58:41.768Z,5.30
2022-12-11T20:01:09.891Z,5.10
2022-12-11T20:03:38.047Z,5.30
2022-12-11T20:06:08.259Z,5.70
2022-12-11T20:08:44.858Z,6.10
2022-12-11T20:11:17.569Z,6.90
2022-12-11T20:13:46.498Z,6.60
2022-12-11T20:16:15.833Z,6.30
2022-12-11T20:18:42.916Z,6.20
2022-12-11T20:21:16.419Z,6.30
2022-12-11T20:23:44.164Z,6.40
2022-12-11T20:26:17.800Z,7.90
2022-12-11T20:28:48.042Z,6.90
2022-12-11T20:31:20.492Z,7.30
2022-12-11T20:33:49.483Z,6.80
2022-12-11T20:36:19.282Z,6.70
2022-12-11T20:38:46.143Z,6.90
2022-12-11T20:41:16.924Z,7.20
2022-12-11T20:43:44.592Z,7.60
2022-12-11T20:46:17.243Z,6.90
2022-12-11T20:48:45.503Z,6.30
2022-12-11T20:51:18.590Z,6.20
2022-12-11T20:53:50.435Z,7.40
2022-12-11T20:56:19.395Z,7.00
2022-12-11T20:58:46.475Z,7.30
2022-12-11T21:01:19.508Z,7.30
2022-12-11T21:03:46.484Z,6.50
2022-12-11T21:06:31.208Z,6.30
2022-12-11T21:09:07.759Z,6.60
2022-12-11T21:11:34.916Z,6.40
2022-12-11T21:14:01.465Z,6.70
2022-12-11T21:16:28.604Z,5.60
2022-12-11T21:18:57.378Z,6.70
2022-12-11T21:21:25.769Z,7.30
2022-12-11T21:23:52.603Z,7.10
2022-12-11T21:26:19.491Z,6.50
2022-12-11T21:28:46.161Z,3.10
2022-12-11T21:31:17.368Z,5.80
2022-12-11T21:33:44.158Z,4.00
2022-12-11T21:36:13.556Z,5.50
2022-12-11T21:38:42.054Z,7.10
2022-12-11T21:41:13.501Z,6.00
2022-12-11T21:44:00.418Z,4.90
2022-12-11T21:46:29.198Z,6.50
2022-12-11T21:48:55.930Z,5.90
2022-12-11T21:51:35.904Z,5.80
2022-12-11T21:54:06.155Z,6.90
2022-12-11T21:56:33.067Z,6.10
2022-12-11T21:59:01.704Z,6.20
2022-12-11T22:01:34.361Z,6.10
2022-12-11T22:04:01.512Z,4.90
2022-12-11T22:06:28.173Z,5.70
2022-12-11T22:08:54.836Z,6.80
2022-12-11T22:11:27.468Z,5.10
2022-12-11T22:13:55.085Z,5.40
2022-12-11T22:16:21.885Z,5.40
2022-12-11T22:18:48.764Z,6.20
2022-12-11T22:21:16.536Z,7.30
2022-12-11T22:23:44.662Z,7.10
2022-12-11T22:26:18.676Z,6.80
2022-12-11T22:28:45.324Z,7.20
2022-12-11T22:31:14.392Z,5.70
2022-12-11T22:33:41.317Z,6.50
2022-12-11T22:36:10.337Z,6.30
2022-12-11T22:38:37.172Z,6.80
2022-12-11T22:41:24.608Z,4.60
2022-12-11T22:43:52.567Z,6.60
2022-12-11T22:46:22.625Z,7.10
2022-12-11T22:48:49.630Z,6.80
2022-12-11T22:51:16.850Z,7.00
2022-12-11T22:53:43.749Z,6.60
2022-12-11T22:56:13.103Z,5.70
2022-12-11T22:58:40.122Z,6.20
2022-12-11T23:01:14.618Z,5.30
2022-12-11T23:03:41.523Z,5.30
2022-12-11T23:06:12.445Z,5.50
2022-12-11T23:08:40.971Z,5.00
2022-12-11T23:11:24.930Z,5.70
2022-12-11T23:13:53.069Z,6.80
2022-12-11T23:16:22.070Z,5.70
2022-12-11T23:18:48.789Z,6.40
2022-12-11T23:21:15.475Z,5.50
2022-12-11T23:23:42.907Z,6.10
2022-12-11T23:26:13.082Z,6.50
2022-12-11T23:28:41.405Z,6.20
2022-12-11T23:31:08.778Z,5.30
2022-12-11T23:33:35.361Z,4.60
2022-12-11T23:36:03.022Z,5.40
2022-12-11T23:38:29.599Z,5.60
2022-12-11T23:40:59.774Z,5.40
2022-12-11T23:43:26.781Z,3.80
2022-12-11T23:45:53.657Z,5.10
2022-12-11T23:48:20.456Z,6.10
2022-12-11T23:50:48.194Z,3.50
2022-12-11T23:53:15.290Z,6.10
2022-12-11T23:55:45.607Z,5.80
2022-12-11T23:58:12.337Z,5.70
